createdAt,value
2022-07-29T00:01:55.906Z,0.50
2022-07-29T00:05:18.085Z,0.50
2022-07-29T00:08:40.398Z,0.40
2022-07-29T00:12:03.290Z,0.38
2022-07-29T00:15:26.651Z,0.60
2022-07-29T00:18:48.837Z,0.60
2022-07-29T00:22:11.061Z,0.43
2022-07-29T00:25:32.889Z,0.40
2022-07-29T00:29:17.106Z,0.60
2022-07-29T00:32:38.997Z,0.35
2022-07-29T00:36:01.078Z,0.52
2022-07-29T00:39:23.186Z,0.55
2022-07-29T00:42:45.985Z,0.73
2022-07-29T00:46:08.077Z,0.80
2022-07-29T00:49:31.269Z,0.45
2022-07-29T00:52:54.442Z,0.50
2022-07-29T00:56:16.353Z,1.02
2022-07-29T00:59:38.219Z,0.40
2022-07-29T01:03:00.452Z,0.50
2022-07-29T01:06:26.991Z,0.40
2022-07-29T01:09:49.673Z,0.50
2022-07-29T01:13:12.902Z,0.47
2022-07-29T01:16:39.640Z,0.77
2022-07-29T01:20:09.054Z,0.50
2022-07-29T01:23:50.665Z,0.50
2022-07-29T01:27:30.671Z,0.60
2022-07-29T01:30:56.348Z,0.43
2022-07-29T01:34:26.080Z,0.60
2022-07-29T01:37:54.343Z,0.43
2022-07-29T01:41:19.802Z,0.50
2022-07-29T01:44:47.989Z,0.40
2022-07-29T01:48:17.586Z,0.60
2022-07-29T01:55:10.287Z,0.70
2022-07-29T01:58:35.080Z,0.40
2022-07-29T02:02:00.889Z,0.47
2022-07-29T02:05:26.345Z,0.63
2022-07-29T02:08:50.193Z,0.40
2022-07-29T02:12:14.105Z,0.43
2022-07-29T02:15:38.043Z,0.30
2022-07-29T02:19:02.922Z,0.50
2022-07-29T02:22:29.133Z,0.40
2022-07-29T02:25:53.171Z,0.68
2022-07-29T02:29:17.600Z,0.50
2022-07-29T02:32:41.854Z,0.50
2022-07-29T02:36:05.174Z,0.50
2022-07-29T02:39:31.121Z,0.50
2022-07-29T02:42:53.319Z,0.57
2022-07-29T02:46:28.582Z,0.73
2022-07-29T02:49:57.453Z,0.85
2022-07-29T02:53:22.341Z,0.60
2022-07-29T02:56:48.278Z,0.75
2022-07-29T03:00:12.781Z,0.50
2022-07-29T03:03:38.637Z,0.60
2022-07-29T03:07:02.847Z,0.63
2022-07-29T03:10:25.802Z,0.60
2022-07-29T03:13:49.323Z,0.57
2022-07-29T03:17:12.221Z,0.70
2022-07-29T03:20:34.477Z,0.70
2022-07-29T03:23:56.849Z,0.50
2022-07-29T03:27:18.825Z,0.60
2022-07-29T03:30:42.044Z,0.52
2022-07-29T03:34:06.632Z,0.63
2022-07-29T03:37:28.762Z,0.60
2022-07-29T03:40:55.268Z,0.63
2022-07-29T03:44:19.136Z,0.52
2022-07-29T03:47:51.003Z,0.70
2022-07-29T03:51:13.332Z,0.30
2022-07-29T03:54:35.642Z,0.50
2022-07-29T03:58:00.024Z,0.40
2022-07-29T04:01:23.273Z,0.50
2022-07-29T04:04:46.785Z,0.40
2022-07-29T04:08:08.609Z,0.70
2022-07-29T04:11:30.437Z,0.32
2022-07-29T04:14:52.398Z,0.57
2022-07-29T04:18:14.527Z,0.95
2022-07-29T04:21:40.863Z,0.50
2022-07-29T04:25:04.283Z,0.70
2022-07-29T04:28:27.180Z,0.40
2022-07-29T04:31:48.965Z,0.40
2022-07-29T04:35:10.874Z,0.40
2022-07-29T04:38:34.454Z,0.40
2022-07-29T04:41:56.536Z,0.40
2022-07-29T04:45:22.607Z,0.32
2022-07-29T04:48:44.782Z,0.57
2022-07-29T04:52:07.756Z,0.38
2022-07-29T04:55:31.260Z,0.40
2022-07-29T04:58:53.579Z,0.68
2022-07-29T05:02:15.752Z,0.60
2022-07-29T05:05:37.571Z,0.35
2022-07-29T05:08:59.511Z,0.45
2022-07-29T05:12:22.824Z,0.45
2022-07-29T05:15:45.153Z,0.77
2022-07-29T05:19:09.707Z,0.30
2022-07-29T05:22:35.706Z,0.50
2022-07-29T05:25:57.889Z,0.30
2022-07-29T05:29:43.176Z,0.50
2022-07-29T05:33:02.957Z,0.17
2022-07-29T05:36:24.765Z,0.45
2022-07-29T05:39:47.393Z,0.40
2022-07-29T05:43:10.747Z,0.30
2022-07-29T05:46:33.983Z,0.35
2022-07-29T05:49:56.268Z,0.55
2022-07-29T05:53:19.882Z,0.30
2022-07-29T05:56:42.382Z,0.30
2022-07-29T06:00:05.293Z,0.22
2022-07-29T06:03:28.580Z,0.40
2022-07-29T06:06:50.713Z,0.40
2022-07-29T06:10:12.738Z,0.50
2022-07-29T06:13:34.566Z,0.70
2022-07-29T06:16:56.568Z,0.30
2022-07-29T06:20:20.213Z,0.47
2022-07-29T06:23:49.149Z,0.40
2022-07-29T06:27:10.909Z,0.30
2022-07-29T06:30:33.010Z,0.32
2022-07-29T06:33:55.249Z,0.82
2022-07-29T06:37:18.837Z,0.50
2022-07-29T06:41:02.269Z,0.40
2022-07-29T06:44:24.226Z,0.40
2022-07-29T06:47:45.978Z,0.30
2022-07-29T06:51:08.884Z,0.60
2022-07-29T06:54:32.146Z,0.43
2022-07-29T06:57:54.108Z,0.32
2022-07-29T07:01:16.048Z,0.43
2022-07-29T07:04:37.965Z,0.40
2022-07-29T07:08:02.975Z,0.57
2022-07-29T07:11:26.282Z,0.30
2022-07-29T07:14:49.340Z,0.30
2022-07-29T07:18:11.151Z,0.50
2022-07-29T07:21:34.716Z,0.40
2022-07-29T07:24:58.159Z,0.40
2022-07-29T07:28:24.610Z,0.35
2022-07-29T07:31:47.202Z,0.40
2022-07-29T07:35:10.885Z,0.70
2022-07-29T07:38:32.863Z,0.30
2022-07-29T07:41:54.951Z,0.30
2022-07-29T07:45:18.686Z,0.20
2022-07-29T07:48:40.494Z,0.32
2022-07-29T07:52:02.323Z,0.40
2022-07-29T07:55:24.429Z,0.47
2022-07-29T07:58:46.516Z,0.30
2022-07-29T08:02:11.737Z,0.50
2022-07-29T08:05:33.500Z,0.40
2022-07-29T08:08:56.425Z,0.30
2022-07-29T08:12:18.717Z,0.30
2022-07-29T08:15:42.549Z,0.30
2022-07-29T08:19:06.014Z,0.60
2022-07-29T08:22:28.125Z,0.30
2022-07-29T08:25:50.497Z,0.28
2022-07-29T08:29:17.069Z,0.28
2022-07-29T08:32:53.745Z,0.35
2022-07-29T08:36:17.487Z,0.20
2022-07-29T08:39:39.780Z,0.13
2022-07-29T08:43:07.201Z,0.45
2022-07-29T08:46:29.250Z,0.40
2022-07-29T08:49:51.369Z,0.85
2022-07-29T08:53:17.029Z,0.57
2022-07-29T08:56:40.562Z,0.10
2022-07-29T09:00:08.064Z,0.50
2022-07-29T09:03:36.259Z,0.54
2022-07-29T09:07:02.873Z,0.70
2022-07-29T09:10:26.810Z,1.13
2022-07-29T09:13:50.660Z,1.42
2022-07-29T09:17:12.783Z,0.50
2022-07-29T09:20:48.588Z,0.40
2022-07-29T09:24:12.343Z,0.50
2022-07-29T09:27:36.921Z,0.30
2022-07-29T09:31:00.321Z,0.40
2022-07-29T09:34:27.505Z,0.20
2022-07-29T09:37:52.291Z,0.10
2022-07-29T09:41:15.222Z,0.28
2022-07-29T09:44:49.382Z,0.25
2022-07-29T09:48:18.925Z,0.40
2022-07-29T09:51:42.512Z,0.40
2022-07-29T09:55:08.477Z,0.50
2022-07-29T09:58:30.675Z,0.10
2022-07-29T10:01:55.444Z,0.30
2022-07-29T10:05:23.036Z,0.15
2022-07-29T10:08:45.122Z,0.20
2022-07-29T10:12:10.224Z,0.10
2022-07-29T10:15:34.357Z,0.03
2022-07-29T10:18:57.805Z,0.20
2022-07-29T10:22:50.463Z,0.30
2022-07-29T10:26:02.821Z,0.20
2022-07-29T10:29:25.096Z,0.20
2022-07-29T10:33:02.458Z,0.25
2022-07-29T10:36:50.625Z,2.15
2022-07-29T10:40:41.827Z,6.53
2022-07-29T10:44:16.096Z,0.30
2022-07-29T10:47:39.437Z,0.30
2022-07-29T10:51:04.162Z,0.40
2022-07-29T10:54:51.260Z,0.25
2022-07-29T10:58:19.019Z,0.10
2022-07-29T11:01:41.080Z,0.30
2022-07-29T11:05:13.782Z,0.40
2022-07-29T11:08:35.871Z,0.30
2022-07-29T11:11:59.622Z,0.32
2022-07-29T11:15:25.258Z,3.33
2022-07-29T11:19:29.790Z,1.13
2022-07-29T11:23:21.860Z,0.70
2022-07-29T11:26:44.690Z,1.00
2022-07-29T11:30:10.803Z,0.35
2022-07-29T11:33:54.478Z,0.40
2022-07-29T11:41:23.969Z,7.60
2022-07-29T11:45:08.475Z,19.15
2022-07-29T11:48:46.152Z,5.93
2022-07-29T11:52:08.331Z,0.98
2022-07-29T11:55:36.996Z,0.22
2022-07-29T11:59:15.310Z,0.17
2022-07-29T12:02:48.331Z,0.10
2022-07-29T12:06:18.116Z,0.30
2022-07-29T12:07:03.218Z,0.20
2022-07-29T12:09:41.631Z,0.52
2022-07-29T12:13:03.674Z,0.40
2022-07-29T12:16:29.725Z,0.10
2022-07-29T12:19:51.823Z,0.20
2022-07-29T12:23:18.867Z,0.30
2022-07-29T12:26:51.883Z,0.28
2022-07-29T12:30:17.464Z,0.15
2022-07-29T12:33:39.862Z,0.30
2022-07-29T12:37:03.003Z,0.20
2022-07-29T12:40:27.008Z,0.30
2022-07-29T12:43:56.075Z,0.20
2022-07-29T12:47:19.348Z,0.10
2022-07-29T12:50:59.904Z,0.10
2022-07-29T12:54:22.023Z,0.10
2022-07-29T12:57:49.869Z,0.10
2022-07-29T13:01:16.953Z,0.10
2022-07-29T13:04:39.356Z,0.28
2022-07-29T13:08:20.238Z,0.30
2022-07-29T13:11:48.666Z,0.10
2022-07-29T13:15:19.167Z,0.20
2022-07-29T13:18:42.381Z,0.28
2022-07-29T13:22:04.781Z,0.20
2022-07-29T13:25:28.356Z,0.20
2022-07-29T13:28:50.854Z,0.10
2022-07-29T13:32:15.700Z,0.20
2022-07-29T13:35:39.907Z,1.60
2022-07-29T13:39:03.783Z,0.45
2022-07-29T13:42:26.540Z,0.30
2022-07-29T13:45:48.492Z,0.20
2022-07-29T13:49:12.468Z,0.20
2022-07-29T13:52:34.522Z,0.28
2022-07-29T13:55:56.945Z,0.38
2022-07-29T13:59:19.203Z,0.50
2022-07-29T14:02:41.237Z,0.40
2022-07-29T14:06:04.404Z,0.30
2022-07-29T14:09:26.591Z,0.28
2022-07-29T14:12:48.606Z,0.10
2022-07-29T14:16:10.639Z,0.30
2022-07-29T14:19:36.441Z,0.20
2022-07-29T14:23:00.406Z,0.13
2022-07-29T14:26:24.191Z,0.20
2022-07-29T14:29:46.281Z,0.10
2022-07-29T14:33:08.011Z,0.10
2022-07-29T14:36:30.063Z,0.20
2022-07-29T14:39:55.069Z,0.20
2022-07-29T14:43:17.220Z,0.13
2022-07-29T14:46:39.196Z,0.10
2022-07-29T14:50:01.054Z,0.10
2022-07-29T14:53:23.154Z,0.20
2022-07-29T14:56:47.161Z,0.50
2022-07-29T15:00:10.882Z,1.05
2022-07-29T15:03:33.866Z,1.20
2022-07-29T15:06:55.892Z,0.60
2022-07-29T15:10:18.645Z,0.60
2022-07-29T15:13:42.385Z,0.10
2022-07-29T15:17:04.959Z,1.30
2022-07-29T15:20:28.229Z,0.90
2022-07-29T15:23:50.447Z,0.50
2022-07-29T15:27:15.186Z,0.60
2022-07-29T15:30:41.938Z,0.60
2022-07-29T15:34:06.285Z,0.35
2022-07-29T15:37:48.453Z,0.30
2022-07-29T15:41:11.018Z,0.40
2022-07-29T15:44:33.110Z,0.20
2022-07-29T15:47:56.638Z,0.60
2022-07-29T15:51:18.567Z,1.70
2022-07-29T15:54:41.887Z,2.30
2022-07-29T15:58:05.388Z,0.60
2022-07-29T16:01:27.286Z,0.10
2022-07-29T16:04:50.774Z,0.68
2022-07-29T16:08:12.793Z,0.90
2022-07-29T16:11:35.034Z,1.60
2022-07-29T16:14:59.369Z,0.60
2022-07-29T16:18:21.534Z,0.80
2022-07-29T16:21:56.977Z,0.40
2022-07-29T16:25:29.600Z,0.20
2022-07-29T16:29:00.975Z,0.20
2022-07-29T16:32:23.173Z,0.20
2022-07-29T16:35:45.042Z,0.30
2022-07-29T16:39:08.511Z,0.20
2022-07-29T16:42:45.944Z,2.10
2022-07-29T16:46:09.373Z,2.92
2022-07-29T16:49:35.871Z,2.20
2022-07-29T16:52:58.327Z,2.50
2022-07-29T16:56:21.549Z,1.23
2022-07-29T16:59:43.744Z,0.52
2022-07-29T17:03:06.678Z,0.63
2022-07-29T17:06:29.589Z,0.38
2022-07-29T17:09:55.333Z,0.10
2022-07-29T17:13:19.674Z,0.30
2022-07-29T17:16:41.495Z,0.20
2022-07-29T17:20:03.582Z,0.03
2022-07-29T17:23:25.638Z,0.30
2022-07-29T17:26:47.587Z,0.30
2022-07-29T17:30:11.699Z,1.70
2022-07-29T17:33:33.490Z,2.65
2022-07-29T17:36:55.369Z,5.15
2022-07-29T17:40:17.521Z,4.38
2022-07-29T17:43:39.519Z,1.63
2022-07-29T17:47:03.453Z,1.20
2022-07-29T17:50:25.482Z,2.80
2022-07-29T17:53:47.373Z,6.93
2022-07-29T17:57:09.249Z,3.03
2022-07-29T18:00:31.351Z,0.70
2022-07-29T18:03:58.465Z,0.20
2022-07-29T18:07:22.143Z,0.30
2022-07-29T18:10:44.260Z,0.20
2022-07-29T18:14:06.152Z,0.10
2022-07-29T18:17:48.401Z,0.20
2022-07-29T18:21:11.671Z,0.20
2022-07-29T18:24:33.334Z,0.25
2022-07-29T18:28:00.146Z,0.30
2022-07-29T18:31:22.668Z,0.20
2022-07-29T18:34:44.358Z,0.35
2022-07-29T18:38:08.504Z,0.38
2022-07-29T18:41:30.481Z,0.43
2022-07-29T18:44:54.916Z,0.40
2022-07-29T18:48:16.678Z,0.28
2022-07-29T18:51:39.288Z,0.20
2022-07-29T18:55:03.836Z,0.20
2022-07-29T18:58:25.706Z,0.20
2022-07-29T19:01:48.685Z,0.10
2022-07-29T19:05:11.758Z,0.28
2022-07-29T19:08:33.965Z,0.20
2022-07-29T19:12:01.854Z,0.20
2022-07-29T19:15:25.626Z,0.30
2022-07-29T19:18:48.135Z,0.20
2022-07-29T19:22:10.295Z,0.30
2022-07-29T19:25:32.155Z,0.30
2022-07-29T19:28:58.849Z,0.20
2022-07-29T19:32:25.042Z,0.20
2022-07-29T19:35:52.838Z,0.20
2022-07-29T19:39:16.956Z,0.30
2022-07-29T19:42:39.259Z,0.20
2022-07-29T19:46:02.678Z,0.22
2022-07-29T19:49:24.846Z,0.32
2022-07-29T19:52:47.717Z,0.40
2022-07-29T19:56:09.573Z,0.90
2022-07-29T19:59:32.173Z,1.60
2022-07-29T20:02:57.437Z,1.48
2022-07-29T20:06:19.440Z,0.80
2022-07-29T20:09:42.032Z,0.70
2022-07-29T20:13:04.279Z,0.82
2022-07-29T20:16:26.295Z,0.88
2022-07-29T20:19:49.742Z,1.00
2022-07-29T20:23:12.096Z,1.00
2022-07-29T20:26:34.440Z,0.90
2022-07-29T20:29:56.593Z,1.30
2022-07-29T20:33:18.848Z,1.10
2022-07-29T20:36:42.461Z,2.20
2022-07-29T20:40:04.880Z,2.40
2022-07-29T20:43:27.746Z,3.83
2022-07-29T20:46:49.531Z,4.45
2022-07-29T20:50:11.949Z,4.72
2022-07-29T20:53:35.166Z,4.25
2022-07-29T20:56:58.081Z,3.63
2022-07-29T21:00:20.212Z,2.75
2022-07-29T21:03:42.128Z,2.05
2022-07-29T21:07:04.420Z,1.85
2022-07-29T21:10:28.537Z,1.70
2022-07-29T21:13:50.293Z,1.30
2022-07-29T21:17:12.176Z,0.90
2022-07-29T21:20:33.990Z,0.90
2022-07-29T21:23:55.868Z,0.65
2022-07-29T21:27:38.385Z,0.70
2022-07-29T21:31:02.605Z,0.60
2022-07-29T21:34:24.691Z,0.40
2022-07-29T21:37:46.804Z,0.60
2022-07-29T21:41:10.889Z,0.50
2022-07-29T21:44:35.541Z,0.63
2022-07-29T21:47:57.459Z,0.30
2022-07-29T21:51:19.273Z,0.50
2022-07-29T21:54:41.047Z,0.50
2022-07-29T21:58:03.990Z,0.90
2022-07-29T22:01:27.598Z,1.00
2022-07-29T22:04:50.810Z,1.15
2022-07-29T22:08:13.640Z,0.90
2022-07-29T22:11:36.866Z,0.90
2022-07-29T22:14:59.667Z,0.77
2022-07-29T22:18:23.094Z,1.17
2022-07-29T22:21:45.188Z,2.30
2022-07-29T22:25:08.400Z,5.22
2022-07-29T22:28:30.522Z,8.60
2022-07-29T22:31:52.376Z,7.45
2022-07-29T22:35:15.997Z,4.00
2022-07-29T22:38:38.182Z,2.60
2022-07-29T22:42:00.161Z,1.60
2022-07-29T22:45:22.690Z,0.70
2022-07-29T22:48:44.673Z,0.50
2022-07-29T22:52:08.019Z,0.60
2022-07-29T22:55:30.042Z,0.65
2022-07-29T22:58:53.498Z,1.00
2022-07-29T23:02:15.442Z,1.30
2022-07-29T23:05:37.865Z,1.20
2022-07-29T23:09:01.231Z,1.30
2022-07-29T23:12:22.914Z,0.90
2022-07-29T23:15:44.858Z,0.90
2022-07-29T23:19:06.569Z,1.00
2022-07-29T23:22:28.341Z,1.60
2022-07-29T23:25:51.843Z,2.05
2022-07-29T23:29:14.306Z,2.95
2022-07-29T23:32:36.254Z,2.80
2022-07-29T23:35:58.059Z,2.28
2022-07-29T23:39:19.986Z,1.60
2022-07-29T23:42:43.929Z,1.00
2022-07-29T23:46:06.580Z,0.95
2022-07-29T23:49:29.127Z,0.70
2022-07-29T23:52:50.986Z,0.70
2022-07-29T23:56:13.557Z,0.60
2022-07-29T23:59:37.332Z,0.63
